sensor_id;sensor_type;location;lat;lon;timestamp;temperature;humidity
2623;DHT22;1321;48.690;9.022;2023-04-03T00:01:14;6.90;99.90
2623;DHT22;1321;48.690;9.022;2023-04-03T00:03:43;6.90;99.90
2623;DHT22;1321;48.690;9.022;2023-04-03T00:06:11;6.90;99.90
2623;DHT22;1321;48.690;9.022;2023-04-03T00:08:40;6.90;99.90
2623;DHT22;1321;48.690;9.022;2023-04-03T00:11:09;6.90;99.90
2623;DHT22;1321;48.690;9.022;2023-04-03T00:13:38;6.90;99.90
2623;DHT22;1321;48.690;9.022;2023-04-03T00:16:08;6.90;99.90
2623;DHT22;1321;48.690;9.022;2023-04-03T00:18:38;6.80;99.90
2623;DHT22;1321;48.690;9.022;2023-04-03T00:21:07;6.90;99.90
2623;DHT22;1321;48.690;9.022;2023-04-03T00:23:35;6.90;99.90
2623;DHT22;1321;48.690;9.022;2023-04-03T00:26:03;6.90;99.90
2623;DHT22;1321;48.690;9.022;2023-04-03T00:28:32;6.90;99.90
2623;DHT22;1321;48.690;9.022;2023-04-03T00:31:00;6.90;99.90
2623;DHT22;1321;48.690;9.022;2023-04-03T00:33:29;6.90;99.90
2623;DHT22;1321;48.690;9.022;2023-04-03T00:35:58;6.80;99.90
2623;DHT22;1321;48.690;9.022;2023-04-03T00:38:26;6.80;99.90
2623;DHT22;1321;48.690;9.022;2023-04-03T00:40:54;6.80;99.90
2623;DHT22;1321;48.690;9.022;2023-04-03T00:43:24;6.80;99.90
2623;DHT22;1321;48.690;9.022;2023-04-03T00:45:54;6.80;99.90
2623;DHT22;1321;48.690;9.022;2023-04-03T00:48:26;6.80;99.90
2623;DHT22;1321;48.690;9.022;2023-04-03T00:50:56;6.80;99.90
2623;DHT22;1321;48.690;9.022;2023-04-03T00:53:27;6.80;99.90
2623;DHT22;1321;48.690;9.022;2023-04-03T00:55:58;6.80;99.90
2623;DHT22;1321;48.690;9.022;2023-04-03T00:58:31;6.70;99.90
2623;DHT22;1321;48.690;9.022;2023-04-03T01:01:05;6.70;99.90
2623;DHT22;1321;48.690;9.022;2023-04-03T01:03:35;6.70;99.90
2623;DHT22;1321;48.690;9.022;2023-04-03T01:06:04;6.60;99.90
2623;DHT22;1321;48.690;9.022;2023-04-03T01:08:33;6.70;99.90
2623;DHT22;1321;48.690;9.022;2023-04-03T01:11:02;6.60;99.90
2623;DHT22;1321;48.690;9.022;2023-04-03T01:13:32;6.60;99.90
2623;DHT22;1321;48.690;9.022;2023-04-03T01:16:01;6.70;99.90
2623;DHT22;1321;48.690;9.022;2023-04-03T01:18:31;6.70;99.90
2623;DHT22;1321;48.690;9.022;2023-04-03T01:21:27;6.70;99.90
2623;DHT22;1321;48.690;9.022;2023-04-03T01:24:12;6.60;99.90
2623;DHT22;1321;48.690;9.022;2023-04-03T01:26:42;6.60;99.90
2623;DHT22;1321;48.690;9.022;2023-04-03T01:29:10;6.60;99.90
2623;DHT22;1321;48.690;9.022;2023-04-03T01:31:48;6.50;99.90
2623;DHT22;1321;48.690;9.022;2023-04-03T01:34:17;6.60;99.90
2623;DHT22;1321;48.690;9.022;2023-04-03T01:36:46;6.50;99.90
2623;DHT22;1321;48.690;9.022;2023-04-03T01:39:14;6.50;99.90
2623;DHT22;1321;48.690;9.022;2023-04-03T01:41:42;6.50;99.90
2623;DHT22;1321;48.690;9.022;2023-04-03T01:44:12;6.50;99.90
2623;DHT22;1321;48.690;9.022;2023-04-03T01:46:40;6.40;99.90
2623;DHT22;1321;48.690;9.022;2023-04-03T01:49:10;6.50;99.90
2623;DHT22;1321;48.690;9.022;2023-04-03T01:51:38;6.40;99.90
2623;DHT22;1321;48.690;9.022;2023-04-03T01:54:06;6.40;99.90
2623;DHT22;1321;48.690;9.022;2023-04-03T01:56:35;6.40;99.90
2623;DHT22;1321;48.690;9.022;2023-04-03T01:59:03;6.40;99.90
2623;DHT22;1321;48.690;9.022;2023-04-03T02:01:31;6.40;99.90
2623;DHT22;1321;48.690;9.022;2023-04-03T02:03:59;6.40;99.90
2623;DHT22;1321;48.690;9.022;2023-04-03T02:06:28;6.40;99.90
2623;DHT22;1321;48.690;9.022;2023-04-03T02:08:57;6.30;99.90
2623;DHT22;1321;48.690;9.022;2023-04-03T02:11:25;6.30;99.90
2623;DHT22;1321;48.690;9.022;2023-04-03T02:13:53;6.30;99.90
2623;DHT22;1321;48.690;9.022;2023-04-03T02:16:21;6.20;99.90
2623;DHT22;1321;48.690;9.022;2023-04-03T02:18:49;6.20;99.90
2623;DHT22;1321;48.690;9.022;2023-04-03T02:21:17;6.20;99.90
2623;DHT22;1321;48.690;9.022;2023-04-03T02:23:47;6.20;99.90
2623;DHT22;1321;48.690;9.022;2023-04-03T02:26:16;6.20;99.90
2623;DHT22;1321;48.690;9.022;2023-04-03T02:28:44;6.10;99.90
2623;DHT22;1321;48.690;9.022;2023-04-03T02:31:12;6.10;99.90
2623;DHT22;1321;48.690;9.022;2023-04-03T02:33:41;6.10;99.90
2623;DHT22;1321;48.690;9.022;2023-04-03T02:36:09;6.10;99.90
2623;DHT22;1321;48.690;9.022;2023-04-03T02:38:38;6.10;99.90
2623;DHT22;1321;48.690;9.022;2023-04-03T02:41:09;6.00;99.90
2623;DHT22;1321;48.690;9.022;2023-04-03T02:43:38;6.00;99.90
2623;DHT22;1321;48.690;9.022;2023-04-03T02:46:07;6.00;99.90
2623;DHT22;1321;48.690;9.022;2023-04-03T02:48:36;6.00;99.90
2623;DHT22;1321;48.690;9.022;2023-04-03T02:51:05;6.00;99.90
2623;DHT22;1321;48.690;9.022;2023-04-03T02:53:33;6.00;99.90
2623;DHT22;1321;48.690;9.022;2023-04-03T02:56:01;6.00;99.90
2623;DHT22;1321;48.690;9.022;2023-04-03T02:58:31;6.00;99.90
2623;DHT22;1321;48.690;9.022;2023-04-03T03:01:00;6.00;99.90
2623;DHT22;1321;48.690;9.022;2023-04-03T03:03:28;6.10;99.90
2623;DHT22;1321;48.690;9.022;2023-04-03T03:06:03;6.10;99.90
2623;DHT22;1321;48.690;9.022;2023-04-03T03:08:31;6.00;99.90
2623;DHT22;1321;48.690;9.022;2023-04-03T03:11:00;6.10;99.90
2623;DHT22;1321;48.690;9.022;2023-04-03T03:13:28;6.00;99.90
2623;DHT22;1321;48.690;9.022;2023-04-03T03:15:58;6.10;99.90
2623;DHT22;1321;48.690;9.022;2023-04-03T03:18:26;6.10;99.90
2623;DHT22;1321;48.690;9.022;2023-04-03T03:20:55;6.00;99.90
2623;DHT22;1321;48.690;9.022;2023-04-03T03:23:25;6.00;99.90
2623;DHT22;1321;48.690;9.022;2023-04-03T03:25:55;6.00;99.90
2623;DHT22;1321;48.690;9.022;2023-04-03T03:28:24;6.10;99.90
2623;DHT22;1321;48.690;9.022;2023-04-03T03:30:52;6.10;99.90
2623;DHT22;1321;48.690;9.022;2023-04-03T03:33:22;6.00;99.90
2623;DHT22;1321;48.690;9.022;2023-04-03T03:35:51;5.90;99.90
2623;DHT22;1321;48.690;9.022;2023-04-03T03:38:20;6.00;99.90
2623;DHT22;1321;48.690;9.022;2023-04-03T03:40:48;6.00;99.90
2623;DHT22;1321;48.690;9.022;2023-04-03T03:43:17;6.00;99.90
2623;DHT22;1321;48.690;9.022;2023-04-03T03:45:50;6.00;99.90
2623;DHT22;1321;48.690;9.022;2023-04-03T03:48:18;6.00;99.90
2623;DHT22;1321;48.690;9.022;2023-04-03T03:50:49;6.00;99.90
2623;DHT22;1321;48.690;9.022;2023-04-03T03:53:17;6.00;99.90
2623;DHT22;1321;48.690;9.022;2023-04-03T03:55:46;6.00;99.90
2623;DHT22;1321;48.690;9.022;2023-04-03T03:58:14;6.00;99.90
2623;DHT22;1321;48.690;9.022;2023-04-03T04:00:42;6.00;99.90
2623;DHT22;1321;48.690;9.022;2023-04-03T04:03:10;6.00;99.90
2623;DHT22;1321;48.690;9.022;2023-04-03T04:05:38;6.00;99.90
2623;DHT22;1321;48.690;9.022;2023-04-03T04:08:08;5.90;99.90
2623;DHT22;1321;48.690;9.022;2023-04-03T04:10:38;6.00;99.90
2623;DHT22;1321;48.690;9.022;2023-04-03T04:13:06;6.00;99.90
2623;DHT22;1321;48.690;9.022;2023-04-03T04:15:34;6.00;99.90
2623;DHT22;1321;48.690;9.022;2023-04-03T04:18:03;6.00;99.90
2623;DHT22;1321;48.690;9.022;2023-04-03T04:20:31;6.00;99.90
2623;DHT22;1321;48.690;9.022;2023-04-03T04:23:00;6.00;99.90
2623;DHT22;1321;48.690;9.022;2023-04-03T04:25:29;6.00;99.90
2623;DHT22;1321;48.690;9.022;2023-04-03T04:27:58;6.00;99.90
2623;DHT22;1321;48.690;9.022;2023-04-03T04:30:26;6.00;99.90
2623;DHT22;1321;48.690;9.022;2023-04-03T04:32:54;6.00;99.90
2623;DHT22;1321;48.690;9.022;2023-04-03T04:35:23;6.00;99.90
2623;DHT22;1321;48.690;9.022;2023-04-03T04:37:51;6.00;99.90
2623;DHT22;1321;48.690;9.022;2023-04-03T04:40:19;6.00;99.90
2623;DHT22;1321;48.690;9.022;2023-04-03T04:42:48;6.00;99.90
2623;DHT22;1321;48.690;9.022;2023-04-03T04:45:17;6.00;99.90
2623;DHT22;1321;48.690;9.022;2023-04-03T04:47:45;6.00;99.90
2623;DHT22;1321;48.690;9.022;2023-04-03T04:50:13;6.10;99.90
2623;DHT22;1321;48.690;9.022;2023-04-03T04:52:41;6.10;99.90
2623;DHT22;1321;48.690;9.022;2023-04-03T04:55:10;6.10;99.90
2623;DHT22;1321;48.690;9.022;2023-04-03T04:57:38;6.10;99.90
2623;DHT22;1321;48.690;9.022;2023-04-03T05:00:09;6.10;99.90
2623;DHT22;1321;48.690;9.022;2023-04-03T05:02:37;6.10;99.90
2623;DHT22;1321;48.690;9.022;2023-04-03T05:05:07;6.00;99.90
2623;DHT22;1321;48.690;9.022;2023-04-03T05:07:35;6.00;99.90
2623;DHT22;1321;48.690;9.022;2023-04-03T05:10:04;6.10;99.90
2623;DHT22;1321;48.690;9.022;2023-04-03T05:12:34;6.10;99.90
2623;DHT22;1321;48.690;9.022;2023-04-03T05:15:02;6.10;99.90
2623;DHT22;1321;48.690;9.022;2023-04-03T05:17:31;6.10;99.90
2623;DHT22;1321;48.690;9.022;2023-04-03T05:20:00;6.10;99.90
2623;DHT22;1321;48.690;9.022;2023-04-03T05:22:28;6.10;99.90
2623;DHT22;1321;48.690;9.022;2023-04-03T05:24:56;6.20;99.90
2623;DHT22;1321;48.690;9.022;2023-04-03T05:27:24;6.20;99.90
2623;DHT22;1321;48.690;9.022;2023-04-03T05:29:55;6.20;99.90
2623;DHT22;1321;48.690;9.022;2023-04-03T05:32:23;6.20;99.90
2623;DHT22;1321;48.690;9.022;2023-04-03T05:34:54;6.20;99.90
2623;DHT22;1321;48.690;9.022;2023-04-03T05:37:24;6.20;99.90
2623;DHT22;1321;48.690;9.022;2023-04-03T05:39:52;6.10;99.90
2623;DHT22;1321;48.690;9.022;2023-04-03T05:42:21;6.10;99.90
2623;DHT22;1321;48.690;9.022;2023-04-03T05:44:49;6.20;99.90
2623;DHT22;1321;48.690;9.022;2023-04-03T05:47:17;6.20;99.90
2623;DHT22;1321;48.690;9.022;2023-04-03T05:49:46;6.20;99.90
2623;DHT22;1321;48.690;9.022;2023-04-03T05:52:21;6.20;99.90
2623;DHT22;1321;48.690;9.022;2023-04-03T05:54:49;6.20;99.90
2623;DHT22;1321;48.690;9.022;2023-04-03T05:57:17;6.30;99.90
2623;DHT22;1321;48.690;9.022;2023-04-03T05:59:46;6.30;99.90
2623;DHT22;1321;48.690;9.022;2023-04-03T06:02:17;6.30;99.90
2623;DHT22;1321;48.690;9.022;2023-04-03T06:04:45;6.40;99.90
2623;DHT22;1321;48.690;9.022;2023-04-03T06:07:17;6.50;99.90
2623;DHT22;1321;48.690;9.022;2023-04-03T06:09:48;6.50;99.90
2623;DHT22;1321;48.690;9.022;2023-04-03T06:12:16;6.60;99.90
2623;DHT22;1321;48.690;9.022;2023-04-03T06:14:44;6.70;99.90
2623;DHT22;1321;48.690;9.022;2023-04-03T06:17:12;6.90;99.90
2623;DHT22;1321;48.690;9.022;2023-04-03T06:19:40;6.90;99.90
2623;DHT22;1321;48.690;9.022;2023-04-03T06:22:09;6.80;99.90
2623;DHT22;1321;48.690;9.022;2023-04-03T06:24:39;6.80;99.90
2623;DHT22;1321;48.690;9.022;2023-04-03T06:27:09;6.80;99.90
2623;DHT22;1321;48.690;9.022;2023-04-03T06:29:38;6.80;99.90
2623;DHT22;1321;48.690;9.022;2023-04-03T06:32:06;6.70;99.90
2623;DHT22;1321;48.690;9.022;2023-04-03T06:34:34;6.70;99.90
2623;DHT22;1321;48.690;9.022;2023-04-03T06:37:03;6.70;99.90
2623;DHT22;1321;48.690;9.022;2023-04-03T06:39:31;6.80;99.90
2623;DHT22;1321;48.690;9.022;2023-04-03T06:42:00;6.80;99.90
2623;DHT22;1321;48.690;9.022;2023-04-03T06:44:28;6.90;99.90
2623;DHT22;1321;48.690;9.022;2023-04-03T06:46:56;7.00;99.90
2623;DHT22;1321;48.690;9.022;2023-04-03T06:49:25;7.10;99.90
2623;DHT22;1321;48.690;9.022;2023-04-03T06:51:53;7.20;99.90
2623;DHT22;1321;48.690;9.022;2023-04-03T06:54:21;7.20;99.90
2623;DHT22;1321;48.690;9.022;2023-04-03T06:56:49;7.20;99.90
2623;DHT22;1321;48.690;9.022;2023-04-03T06:59:19;7.30;99.90
2623;DHT22;1321;48.690;9.022;2023-04-03T07:01:47;7.30;99.90
2623;DHT22;1321;48.690;9.022;2023-04-03T07:04:16;7.30;99.90
2623;DHT22;1321;48.690;9.022;2023-04-03T07:06:44;7.40;99.90
2623;DHT22;1321;48.690;9.022;2023-04-03T07:09:14;7.30;99.90
2623;DHT22;1321;48.690;9.022;2023-04-03T07:11:42;7.30;99.90
2623;DHT22;1321;48.690;9.022;2023-04-03T07:14:10;7.40;99.90
2623;DHT22;1321;48.690;9.022;2023-04-03T07:16:40;7.40;99.90
2623;DHT22;1321;48.690;9.022;2023-04-03T07:19:08;7.40;99.90
2623;DHT22;1321;48.690;9.022;2023-04-03T07:21:36;7.40;99.90
2623;DHT22;1321;48.690;9.022;2023-04-03T07:24:05;7.40;99.90
2623;DHT22;1321;48.690;9.022;2023-04-03T07:26:40;7.40;99.90
2623;DHT22;1321;48.690;9.022;2023-04-03T07:29:08;7.50;99.90
2623;DHT22;1321;48.690;9.022;2023-04-03T07:31:40;7.60;99.90
2623;DHT22;1321;48.690;9.022;2023-04-03T07:34:09;7.60;99.90
2623;DHT22;1321;48.690;9.022;2023-04-03T07:36:37;7.60;99.90
2623;DHT22;1321;48.690;9.022;2023-04-03T07:39:05;7.60;99.90
2623;DHT22;1321;48.690;9.022;2023-04-03T07:41:36;7.70;99.90
2623;DHT22;1321;48.690;9.022;2023-04-03T07:44:04;7.70;99.90
2623;DHT22;1321;48.690;9.022;2023-04-03T07:46:36;7.80;99.90
2623;DHT22;1321;48.690;9.022;2023-04-03T07:49:07;7.80;99.90
2623;DHT22;1321;48.690;9.022;2023-04-03T07:51:36;7.90;99.90
2623;DHT22;1321;48.690;9.022;2023-04-03T07:54:04;7.80;99.90
2623;DHT22;1321;48.690;9.022;2023-04-03T07:56:32;7.90;99.90
2623;DHT22;1321;48.690;9.022;2023-04-03T07:59:01;7.90;99.90
2623;DHT22;1321;48.690;9.022;2023-04-03T08:01:29;8.00;99.90
2623;DHT22;1321;48.690;9.022;2023-04-03T08:03:59;8.10;99.90
2623;DHT22;1321;48.690;9.022;2023-04-03T08:06:31;8.10;99.90
2623;DHT22;1321;48.690;9.022;2023-04-03T08:09:13;8.20;99.90
2623;DHT22;1321;48.690;9.022;2023-04-03T08:11:42;8.40;99.90
2623;DHT22;1321;48.690;9.022;2023-04-03T08:14:10;8.40;99.90
2623;DHT22;1321;48.690;9.022;2023-04-03T08:16:43;8.30;99.90
2623;DHT22;1321;48.690;9.022;2023-04-03T08:19:12;8.40;99.90
2623;DHT22;1321;48.690;9.022;2023-04-03T08:21:54;8.70;99.90
2623;DHT22;1321;48.690;9.022;2023-04-03T08:24:23;8.80;99.90
2623;DHT22;1321;48.690;9.022;2023-04-03T08:26:52;8.80;99.90
2623;DHT22;1321;48.690;9.022;2023-04-03T08:29:20;8.80;99.90
2623;DHT22;1321;48.690;9.022;2023-04-03T08:31:48;8.80;99.90
2623;DHT22;1321;48.690;9.022;2023-04-03T08:34:18;8.80;99.90
2623;DHT22;1321;48.690;9.022;2023-04-03T08:36:46;8.80;99.90
2623;DHT22;1321;48.690;9.022;2023-04-03T08:39:17;8.80;99.90
2623;DHT22;1321;48.690;9.022;2023-04-03T08:41:46;8.80;99.90
2623;DHT22;1321;48.690;9.022;2023-04-03T08:44:19;9.00;99.90
2623;DHT22;1321;48.690;9.022;2023-04-03T08:47:02;9.10;99.90
2623;DHT22;1321;48.690;9.022;2023-04-03T08:49:35;9.10;99.90
2623;DHT22;1321;48.690;9.022;2023-04-03T08:52:11;9.10;99.90
2623;DHT22;1321;48.690;9.022;2023-04-03T08:54:49;9.20;99.90
2623;DHT22;1321;48.690;9.022;2023-04-03T08:57:26;9.30;99.90
2623;DHT22;1321;48.690;9.022;2023-04-03T08:59:58;9.30;99.90
2623;DHT22;1321;48.690;9.022;2023-04-03T09:02:33;9.30;99.90
2623;DHT22;1321;48.690;9.022;2023-04-03T09:05:11;9.40;99.90
2623;DHT22;1321;48.690;9.022;2023-04-03T09:07:43;9.40;99.90
2623;DHT22;1321;48.690;9.022;2023-04-03T09:10:24;9.30;99.90
2623;DHT22;1321;48.690;9.022;2023-04-03T09:12:59;9.30;99.90
2623;DHT22;1321;48.690;9.022;2023-04-03T09:15:28;9.40;99.90
2623;DHT22;1321;48.690;9.022;2023-04-03T09:18:08;9.40;99.90
2623;DHT22;1321;48.690;9.022;2023-04-03T09:20:43;9.30;99.90
2623;DHT22;1321;48.690;9.022;2023-04-03T09:23:19;9.10;99.90
2623;DHT22;1321;48.690;9.022;2023-04-03T09:25:54;9.00;99.90
2623;DHT22;1321;48.690;9.022;2023-04-03T09:28:25;8.90;99.90
2623;DHT22;1321;48.690;9.022;2023-04-03T09:30:54;8.80;99.90
2623;DHT22;1321;48.690;9.022;2023-04-03T09:33:23;8.80;99.90
2623;DHT22;1321;48.690;9.022;2023-04-03T09:35:52;8.80;99.90
2623;DHT22;1321;48.690;9.022;2023-04-03T09:38:21;8.70;99.90
2623;DHT22;1321;48.690;9.022;2023-04-03T09:41:04;8.60;99.90
2623;DHT22;1321;48.690;9.022;2023-04-03T09:43:34;8.50;99.90
2623;DHT22;1321;48.690;9.022;2023-04-03T09:46:25;8.50;99.90
2623;DHT22;1321;48.690;9.022;2023-04-03T09:48:58;8.40;99.90
2623;DHT22;1321;48.690;9.022;2023-04-03T09:51:36;8.40;99.90
2623;DHT22;1321;48.690;9.022;2023-04-03T09:54:30;8.40;99.90
2623;DHT22;1321;48.690;9.022;2023-04-03T09:57:02;8.30;99.90
2623;DHT22;1321;48.690;9.022;2023-04-03T09:59:32;8.40;99.90
2623;DHT22;1321;48.690;9.022;2023-04-03T10:02:04;8.40;99.90
2623;DHT22;1321;48.690;9.022;2023-04-03T10:04:46;8.40;99.90
2623;DHT22;1321;48.690;9.022;2023-04-03T10:07:36;8.40;99.90
2623;DHT22;1321;48.690;9.022;2023-04-03T10:10:18;8.40;99.90
2623;DHT22;1321;48.690;9.022;2023-04-03T10:13:04;8.50;99.90
2623;DHT22;1321;48.690;9.022;2023-04-03T10:15:36;8.50;99.90
2623;DHT22;1321;48.690;9.022;2023-04-03T10:18:16;8.60;99.90
2623;DHT22;1321;48.690;9.022;2023-04-03T10:20:51;8.80;99.90
2623;DHT22;1321;48.690;9.022;2023-04-03T10:23:23;9.10;99.90
2623;DHT22;1321;48.690;9.022;2023-04-03T10:26:02;9.20;99.90
2623;DHT22;1321;48.690;9.022;2023-04-03T10:28:47;9.40;99.90
2623;DHT22;1321;48.690;9.022;2023-04-03T10:31:22;9.40;99.90
2623;DHT22;1321;48.690;9.022;2023-04-03T10:33:58;9.60;99.90
2623;DHT22;1321;48.690;9.022;2023-04-03T10:36:36;9.70;99.90
2623;DHT22;1321;48.690;9.022;2023-04-03T10:39:15;9.50;99.90
2623;DHT22;1321;48.690;9.022;2023-04-03T10:41:56;9.40;99.90
2623;DHT22;1321;48.690;9.022;2023-04-03T10:44:56;9.30;99.90
2623;DHT22;1321;48.690;9.022;2023-04-03T10:47:32;9.20;99.90
2623;DHT22;1321;48.690;9.022;2023-04-03T10:50:22;9.10;99.90
2623;DHT22;1321;48.690;9.022;2023-04-03T10:52:55;9.00;99.90
2623;DHT22;1321;48.690;9.022;2023-04-03T10:55:34;9.00;99.90
2623;DHT22;1321;48.690;9.022;2023-04-03T10:58:04;9.10;99.90
2623;DHT22;1321;48.690;9.022;2023-04-03T11:00:39;9.00;99.90
2623;DHT22;1321;48.690;9.022;2023-04-03T11:03:12;9.00;99.90
2623;DHT22;1321;48.690;9.022;2023-04-03T11:05:43;8.90;99.90
2623;DHT22;1321;48.690;9.022;2023-04-03T11:08:19;8.90;99.90
2623;DHT22;1321;48.690;9.022;2023-04-03T11:10:55;8.80;99.90
2623;DHT22;1321;48.690;9.022;2023-04-03T11:13:27;8.90;99.90
2623;DHT22;1321;48.690;9.022;2023-04-03T11:16:00;8.90;99.90
2623;DHT22;1321;48.690;9.022;2023-04-03T11:18:34;8.80;99.90
2623;DHT22;1321;48.690;9.022;2023-04-03T11:21:06;8.80;99.90
2623;DHT22;1321;48.690;9.022;2023-04-03T11:23:37;8.90;99.90
2623;DHT22;1321;48.690;9.022;2023-04-03T11:26:17;8.90;99.90
2623;DHT22;1321;48.690;9.022;2023-04-03T11:28:52;8.90;99.90
2623;DHT22;1321;48.690;9.022;2023-04-03T11:31:41;8.80;99.90
2623;DHT22;1321;48.690;9.022;2023-04-03T11:34:24;8.80;99.90
2623;DHT22;1321;48.690;9.022;2023-04-03T11:36:56;8.80;99.90
2623;DHT22;1321;48.690;9.022;2023-04-03T11:39:28;8.80;99.90
2623;DHT22;1321;48.690;9.022;2023-04-03T11:42:14;8.60;99.90
2623;DHT22;1321;48.690;9.022;2023-04-03T11:44:43;8.60;99.90
2623;DHT22;1321;48.690;9.022;2023-04-03T11:47:45;8.60;99.90
2623;DHT22;1321;48.690;9.022;2023-04-03T11:50:30;8.60;99.90
2623;DHT22;1321;48.690;9.022;2023-04-03T11:53:11;8.70;99.90
2623;DHT22;1321;48.690;9.022;2023-04-03T11:55:53;8.60;99.90
2623;DHT22;1321;48.690;9.022;2023-04-03T11:58:24;8.60;95.90
2623;DHT22;1321;48.690;9.022;2023-04-03T12:01:04;8.60;95.80
2623;DHT22;1321;48.690;9.022;2023-04-03T12:10:15;8.50;96.00
2623;DHT22;1321;48.690;9.022;2023-04-03T12:12:59;8.40;94.40
2623;DHT22;1321;48.690;9.022;2023-04-03T12:15:49;8.50;95.70
2623;DHT22;1321;48.690;9.022;2023-04-03T12:19:02;8.50;95.60
2623;DHT22;1321;48.690;9.022;2023-04-03T12:24:37;8.80;95.90
2623;DHT22;1321;48.690;9.022;2023-04-03T12:27:27;8.80;95.80
2623;DHT22;1321;48.690;9.022;2023-04-03T12:30:03;8.70;94.40
2623;DHT22;1321;48.690;9.022;2023-04-03T12:32:58;8.80;95.40
2623;DHT22;1321;48.690;9.022;2023-04-03T12:35:46;8.70;99.90
2623;DHT22;1321;48.690;9.022;2023-04-03T12:38:41;8.70;95.10
2623;DHT22;1321;48.690;9.022;2023-04-03T12:41:23;8.80;93.10
2623;DHT22;1321;48.690;9.022;2023-04-03T12:46:51;8.70;91.00
2623;DHT22;1321;48.690;9.022;2023-04-03T12:49:32;8.70;91.60
2623;DHT22;1321;48.690;9.022;2023-04-03T12:52:05;8.70;91.20
2623;DHT22;1321;48.690;9.022;2023-04-03T12:54:36;8.80;89.90
2623;DHT22;1321;48.690;9.022;2023-04-03T12:57:10;8.70;86.40
2623;DHT22;1321;48.690;9.022;2023-04-03T12:59:38;8.70;90.30
2623;DHT22;1321;48.690;9.022;2023-04-03T13:02:21;8.80;90.70
2623;DHT22;1321;48.690;9.022;2023-04-03T13:04:51;8.80;88.10
2623;DHT22;1321;48.690;9.022;2023-04-03T13:07:24;8.90;88.30
2623;DHT22;1321;48.690;9.022;2023-04-03T13:10:04;9.10;90.60
2623;DHT22;1321;48.690;9.022;2023-04-03T13:12:46;9.20;89.30
2623;DHT22;1321;48.690;9.022;2023-04-03T13:15:17;9.30;90.60
2623;DHT22;1321;48.690;9.022;2023-04-03T13:17:46;9.40;91.80
2623;DHT22;1321;48.690;9.022;2023-04-03T13:20:21;9.40;94.00
2623;DHT22;1321;48.690;9.022;2023-04-03T13:22:56;9.40;85.00
2623;DHT22;1321;48.690;9.022;2023-04-03T13:25:27;9.20;81.80
2623;DHT22;1321;48.690;9.022;2023-04-03T13:27:56;9.30;94.60
2623;DHT22;1321;48.690;9.022;2023-04-03T13:30:31;9.30;77.90
2623;DHT22;1321;48.690;9.022;2023-04-03T13:33:02;9.30;75.50
2623;DHT22;1321;48.690;9.022;2023-04-03T13:35:34;9.30;74.30
2623;DHT22;1321;48.690;9.022;2023-04-03T13:38:20;9.40;74.80
2623;DHT22;1321;48.690;9.022;2023-04-03T13:40:51;9.40;69.20
2623;DHT22;1321;48.690;9.022;2023-04-03T13:43:22;9.40;69.00
2623;DHT22;1321;48.690;9.022;2023-04-03T13:46:01;9.50;68.10
2623;DHT22;1321;48.690;9.022;2023-04-03T13:48:37;9.50;65.50
2623;DHT22;1321;48.690;9.022;2023-04-03T13:51:18;9.40;62.70
2623;DHT22;1321;48.690;9.022;2023-04-03T13:53:50;9.50;64.30
2623;DHT22;1321;48.690;9.022;2023-04-03T13:56:24;9.60;64.20
2623;DHT22;1321;48.690;9.022;2023-04-03T13:58:57;9.60;67.50
2623;DHT22;1321;48.690;9.022;2023-04-03T14:01:32;9.60;67.20
2623;DHT22;1321;48.690;9.022;2023-04-03T14:04:09;9.50;64.50
2623;DHT22;1321;48.690;9.022;2023-04-03T14:06:37;9.50;64.50
2623;DHT22;1321;48.690;9.022;2023-04-03T14:09:07;9.40;63.30
2623;DHT22;1321;48.690;9.022;2023-04-03T14:11:35;9.40;64.30
2623;DHT22;1321;48.690;9.022;2023-04-03T14:14:09;9.30;61.80
2623;DHT22;1321;48.690;9.022;2023-04-03T14:16:43;9.40;59.90
2623;DHT22;1321;48.690;9.022;2023-04-03T14:19:18;9.30;57.10
2623;DHT22;1321;48.690;9.022;2023-04-03T14:21:47;9.30;55.60
2623;DHT22;1321;48.690;9.022;2023-04-03T14:24:17;9.30;55.00
2623;DHT22;1321;48.690;9.022;2023-04-03T14:26:49;9.30;54.90
2623;DHT22;1321;48.690;9.022;2023-04-03T14:29:17;9.30;53.90
2623;DHT22;1321;48.690;9.022;2023-04-03T14:31:47;9.40;55.20
2623;DHT22;1321;48.690;9.022;2023-04-03T14:34:26;9.40;55.00
2623;DHT22;1321;48.690;9.022;2023-04-03T14:36:54;9.30;51.90
2623;DHT22;1321;48.690;9.022;2023-04-03T14:39:24;9.30;53.10
2623;DHT22;1321;48.690;9.022;2023-04-03T14:41:53;9.30;53.00
2623;DHT22;1321;48.690;9.022;2023-04-03T14:44:22;9.30;50.70
2623;DHT22;1321;48.690;9.022;2023-04-03T14:46:50;9.20;48.90
2623;DHT22;1321;48.690;9.022;2023-04-03T14:49:25;9.10;50.70
2623;DHT22;1321;48.690;9.022;2023-04-03T14:51:55;9.10;50.90
2623;DHT22;1321;48.690;9.022;2023-04-03T14:54:25;9.00;47.70
2623;DHT22;1321;48.690;9.022;2023-04-03T14:56:55;9.00;47.50
2623;DHT22;1321;48.690;9.022;2023-04-03T14:59:25;9.00;48.20
2623;DHT22;1321;48.690;9.022;2023-04-03T15:01:54;9.00;49.60
2623;DHT22;1321;48.690;9.022;2023-04-03T15:04:22;8.90;62.80
2623;DHT22;1321;48.690;9.022;2023-04-03T15:06:52;9.00;46.60
2623;DHT22;1321;48.690;9.022;2023-04-03T15:09:22;8.90;45.80
2623;DHT22;1321;48.690;9.022;2023-04-03T15:11:53;8.80;44.10
2623;DHT22;1321;48.690;9.022;2023-04-03T15:14:22;8.90;46.30
2623;DHT22;1321;48.690;9.022;2023-04-03T15:17:12;9.10;49.30
2623;DHT22;1321;48.690;9.022;2023-04-03T15:19:43;9.30;51.10
2623;DHT22;1321;48.690;9.022;2023-04-03T15:22:14;9.60;54.70
2623;DHT22;1321;48.690;9.022;2023-04-03T15:24:43;9.80;56.00
2623;DHT22;1321;48.690;9.022;2023-04-03T15:27:13;9.80;50.50
2623;DHT22;1321;48.690;9.022;2023-04-03T15:29:43;9.60;45.50
2623;DHT22;1321;48.690;9.022;2023-04-03T15:32:12;9.50;44.10
2623;DHT22;1321;48.690;9.022;2023-04-03T15:34:40;9.40;41.80
2623;DHT22;1321;48.690;9.022;2023-04-03T15:37:09;9.40;44.40
2623;DHT22;1321;48.690;9.022;2023-04-03T15:39:37;9.40;43.40
2623;DHT22;1321;48.690;9.022;2023-04-03T15:42:05;9.30;42.20
2623;DHT22;1321;48.690;9.022;2023-04-03T15:44:35;9.30;42.10
2623;DHT22;1321;48.690;9.022;2023-04-03T15:47:04;9.30;42.70
2623;DHT22;1321;48.690;9.022;2023-04-03T15:49:33;9.30;40.30
2623;DHT22;1321;48.690;9.022;2023-04-03T15:52:02;9.20;40.40
2623;DHT22;1321;48.690;9.022;2023-04-03T15:54:30;9.30;40.60
2623;DHT22;1321;48.690;9.022;2023-04-03T15:56:58;9.30;38.50
2623;DHT22;1321;48.690;9.022;2023-04-03T15:59:27;9.30;39.50
2623;DHT22;1321;48.690;9.022;2023-04-03T16:01:57;9.20;36.30
2623;DHT22;1321;48.690;9.022;2023-04-03T16:04:26;9.20;34.40
2623;DHT22;1321;48.690;9.022;2023-04-03T16:06:54;9.10;32.10
2623;DHT22;1321;48.690;9.022;2023-04-03T16:09:23;9.20;32.70
2623;DHT22;1321;48.690;9.022;2023-04-03T16:11:51;9.20;29.10
2623;DHT22;1321;48.690;9.022;2023-04-03T16:14:20;9.20;31.70
2623;DHT22;1321;48.690;9.022;2023-04-03T16:16:49;9.20;30.80
2623;DHT22;1321;48.690;9.022;2023-04-03T16:19:18;9.10;30.40
2623;DHT22;1321;48.690;9.022;2023-04-03T16:21:53;9.10;29.30
2623;DHT22;1321;48.690;9.022;2023-04-03T16:24:21;9.10;28.60
2623;DHT22;1321;48.690;9.022;2023-04-03T16:26:49;8.90;26.20
2623;DHT22;1321;48.690;9.022;2023-04-03T16:29:17;8.80;26.80
2623;DHT22;1321;48.690;9.022;2023-04-03T16:31:45;8.80;26.70
2623;DHT22;1321;48.690;9.022;2023-04-03T16:34:14;8.80;26.70
2623;DHT22;1321;48.690;9.022;2023-04-03T16:36:44;8.80;26.20
2623;DHT22;1321;48.690;9.022;2023-04-03T16:39:12;8.80;27.70
2623;DHT22;1321;48.690;9.022;2023-04-03T16:41:40;8.80;27.50
2623;DHT22;1321;48.690;9.022;2023-04-03T16:44:08;8.90;27.40
2623;DHT22;1321;48.690;9.022;2023-04-03T16:46:36;8.90;27.80
2623;DHT22;1321;48.690;9.022;2023-04-03T16:49:04;8.90;27.40
2623;DHT22;1321;48.690;9.022;2023-04-03T16:51:32;8.90;27.60
2623;DHT22;1321;48.690;9.022;2023-04-03T16:54:02;8.90;27.50
2623;DHT22;1321;48.690;9.022;2023-04-03T16:56:30;8.80;24.50
2623;DHT22;1321;48.690;9.022;2023-04-03T16:58:58;8.80;24.20